sensor_id;sensor_type;location;lat;lon;timestamp;P1;durP1;ratioP1;P2;durP2;ratioP2
64885;SDS011;51514;52.206;5.114;2023-11-21T00:01:37;4.90;;;2.22;;
64885;SDS011;51514;52.206;5.114;2023-11-21T00:04:02;4.53;;;1.90;;
64885;SDS011;51514;52.206;5.114;2023-11-21T00:06:28;4.95;;;2.25;;
64885;SDS011;51514;52.206;5.114;2023-11-21T00:08:55;4.85;;;2.53;;
64885;SDS011;51514;52.206;5.114;2023-11-21T00:11:20;3.97;;;2.53;;
64885;SDS011;51514;52.206;5.114;2023-11-21T00:13:46;3.00;;;2.00;;
64885;SDS011;51514;52.206;5.114;2023-11-21T00:16:11;3.75;;;2.00;;
64885;SDS011;51514;52.206;5.114;2023-11-21T00:18:37;3.45;;;2.05;;
64885;SDS011;51514;52.206;5.114;2023-11-21T00:21:02;3.72;;;2.38;;
64885;SDS011;51514;52.206;5.114;2023-11-21T00:23:28;4.22;;;2.30;;
64885;SDS011;51514;52.206;5.114;2023-11-21T00:25:54;3.40;;;2.22;;
64885;SDS011;51514;52.206;5.114;2023-11-21T00:28:19;5.95;;;2.42;;
64885;SDS011;51514;52.206;5.114;2023-11-21T00:30:44;2.40;;;1.85;;
64885;SDS011;51514;52.206;5.114;2023-11-21T00:33:10;3.45;;;2.30;;
64885;SDS011;51514;52.206;5.114;2023-11-21T00:35:35;3.50;;;2.20;;
64885;SDS011;51514;52.206;5.114;2023-11-21T00:38:01;4.85;;;1.92;;
64885;SDS011;51514;52.206;5.114;2023-11-21T00:40:26;3.97;;;2.20;;
64885;SDS011;51514;52.206;5.114;2023-11-21T00:42:51;3.78;;;2.05;;
64885;SDS011;51514;52.206;5.114;2023-11-21T00:45:17;2.80;;;1.73;;
64885;SDS011;51514;52.206;5.114;2023-11-21T00:47:42;3.80;;;2.45;;
64885;SDS011;51514;52.206;5.114;2023-11-21T00:50:08;2.88;;;1.83;;
64885;SDS011;51514;52.206;5.114;2023-11-21T00:52:34;2.70;;;1.90;;
64885;SDS011;51514;52.206;5.114;2023-11-21T00:54:59;3.70;;;2.10;;
64885;SDS011;51514;52.206;5.114;2023-11-21T00:57:25;2.75;;;2.03;;
64885;SDS011;51514;52.206;5.114;2023-11-21T00:59:51;3.03;;;2.13;;
64885;SDS011;51514;52.206;5.114;2023-11-21T01:02:16;3.63;;;2.03;;
64885;SDS011;51514;52.206;5.114;2023-11-21T01:04:42;3.50;;;1.77;;
64885;SDS011;51514;52.206;5.114;2023-11-21T01:07:08;4.38;;;1.67;;
64885;SDS011;51514;52.206;5.114;2023-11-21T01:09:33;4.85;;;2.00;;
64885;SDS011;51514;52.206;5.114;2023-11-21T01:11:58;3.92;;;1.80;;
64885;SDS011;51514;52.206;5.114;2023-11-21T01:14:24;4.03;;;2.05;;
64885;SDS011;51514;52.206;5.114;2023-11-21T01:16:52;3.65;;;1.63;;
64885;SDS011;51514;52.206;5.114;2023-11-21T01:19:17;4.65;;;2.30;;
64885;SDS011;51514;52.206;5.114;2023-11-21T01:21:43;2.55;;;1.75;;
64885;SDS011;51514;52.206;5.114;2023-11-21T01:24:08;2.95;;;1.85;;
64885;SDS011;51514;52.206;5.114;2023-11-21T01:26:34;3.33;;;2.03;;
64885;SDS011;51514;52.206;5.114;2023-11-21T01:28:59;3.25;;;2.05;;
64885;SDS011;51514;52.206;5.114;2023-11-21T01:31:24;2.40;;;1.80;;
64885;SDS011;51514;52.206;5.114;2023-11-21T01:33:54;1.98;;;1.73;;
64885;SDS011;51514;52.206;5.114;2023-11-21T01:36:20;2.72;;;1.92;;
64885;SDS011;51514;52.206;5.114;2023-11-21T01:38:46;3.10;;;1.98;;
64885;SDS011;51514;52.206;5.114;2023-11-21T01:41:13;3.47;;;1.90;;
64885;SDS011;51514;52.206;5.114;2023-11-21T01:43:38;4.72;;;2.17;;
64885;SDS011;51514;52.206;5.114;2023-11-21T01:46:04;3.40;;;2.15;;
64885;SDS011;51514;52.206;5.114;2023-11-21T01:48:31;2.50;;;1.80;;
64885;SDS011;51514;52.206;5.114;2023-11-21T01:50:57;3.08;;;1.80;;
64885;SDS011;51514;52.206;5.114;2023-11-21T01:53:26;3.22;;;1.60;;
64885;SDS011;51514;52.206;5.114;2023-11-21T01:55:53;3.67;;;2.05;;
64885;SDS011;51514;52.206;5.114;2023-11-21T01:58:20;1.95;;;1.67;;
64885;SDS011;51514;52.206;5.114;2023-11-21T02:00:46;3.58;;;1.98;;
64885;SDS011;51514;52.206;5.114;2023-11-21T02:03:13;3.30;;;2.30;;
64885;SDS011;51514;52.206;5.114;2023-11-21T02:05:39;2.38;;;1.60;;
64885;SDS011;51514;52.206;5.114;2023-11-21T02:08:04;5.97;;;2.05;;
64885;SDS011;51514;52.206;5.114;2023-11-21T02:10:30;2.25;;;1.70;;
64885;SDS011;51514;52.206;5.114;2023-11-21T02:12:56;2.55;;;1.67;;
64885;SDS011;51514;52.206;5.114;2023-11-21T02:15:21;2.67;;;1.80;;
64885;SDS011;51514;52.206;5.114;2023-11-21T02:17:48;3.05;;;1.90;;
64885;SDS011;51514;52.206;5.114;2023-11-21T02:20:18;2.13;;;1.88;;
64885;SDS011;51514;52.206;5.114;2023-11-21T02:22:54;3.00;;;2.10;;
64885;SDS011;51514;52.206;5.114;2023-11-21T02:25:25;3.15;;;1.92;;
64885;SDS011;51514;52.206;5.114;2023-11-21T02:27:56;2.85;;;2.10;;
64885;SDS011;51514;52.206;5.114;2023-11-21T02:30:22;2.45;;;1.88;;
64885;SDS011;51514;52.206;5.114;2023-11-21T02:32:50;2.90;;;1.90;;
64885;SDS011;51514;52.206;5.114;2023-11-21T02:35:18;2.33;;;1.70;;
64885;SDS011;51514;52.206;5.114;2023-11-21T02:37:45;2.47;;;1.92;;
64885;SDS011;51514;52.206;5.114;2023-11-21T02:40:11;2.10;;;1.67;;
64885;SDS011;51514;52.206;5.114;2023-11-21T02:42:37;2.72;;;1.90;;
64885;SDS011;51514;52.206;5.114;2023-11-21T02:45:03;3.15;;;2.10;;
64885;SDS011;51514;52.206;5.114;2023-11-21T02:47:30;4.15;;;1.63;;
64885;SDS011;51514;52.206;5.114;2023-11-21T02:49:55;3.00;;;1.73;;
64885;SDS011;51514;52.206;5.114;2023-11-21T02:52:21;1.95;;;1.73;;
64885;SDS011;51514;52.206;5.114;2023-11-21T02:54:46;2.30;;;1.77;;
64885;SDS011;51514;52.206;5.114;2023-11-21T02:57:12;1.98;;;1.55;;
64885;SDS011;51514;52.206;5.114;2023-11-21T02:59:37;1.67;;;1.40;;
64885;SDS011;51514;52.206;5.114;2023-11-21T03:02:02;2.58;;;1.80;;
64885;SDS011;51514;52.206;5.114;2023-11-21T03:04:28;2.47;;;2.00;;
64885;SDS011;51514;52.206;5.114;2023-11-21T03:06:53;2.40;;;1.90;;
64885;SDS011;51514;52.206;5.114;2023-11-21T03:09:18;2.70;;;2.10;;
64885;SDS011;51514;52.206;5.114;2023-11-21T03:11:44;3.95;;;1.98;;
64885;SDS011;51514;52.206;5.114;2023-11-21T03:14:09;3.85;;;2.20;;
64885;SDS011;51514;52.206;5.114;2023-11-21T03:16:35;2.75;;;1.77;;
64885;SDS011;51514;52.206;5.114;2023-11-21T03:19:03;5.35;;;2.10;;
64885;SDS011;51514;52.206;5.114;2023-11-21T03:21:28;2.67;;;1.73;;
64885;SDS011;51514;52.206;5.114;2023-11-21T03:23:54;2.28;;;1.60;;
64885;SDS011;51514;52.206;5.114;2023-11-21T03:26:19;2.25;;;1.90;;
64885;SDS011;51514;52.206;5.114;2023-11-21T03:28:45;2.55;;;1.75;;
64885;SDS011;51514;52.206;5.114;2023-11-21T03:31:11;2.53;;;1.73;;
64885;SDS011;51514;52.206;5.114;2023-11-21T03:33:36;2.53;;;1.42;;
64885;SDS011;51514;52.206;5.114;2023-11-21T03:36:02;2.10;;;1.63;;
64885;SDS011;51514;52.206;5.114;2023-11-21T03:38:28;3.08;;;1.88;;
64885;SDS011;51514;52.206;5.114;2023-11-21T03:40:54;2.03;;;1.65;;
64885;SDS011;51514;52.206;5.114;2023-11-21T03:43:19;1.65;;;1.45;;
64885;SDS011;51514;52.206;5.114;2023-11-21T03:45:44;3.22;;;2.20;;
64885;SDS011;51514;52.206;5.114;2023-11-21T03:48:10;2.63;;;1.88;;
64885;SDS011;51514;52.206;5.114;2023-11-21T03:50:37;2.38;;;1.80;;
64885;SDS011;51514;52.206;5.114;2023-11-21T03:53:03;3.22;;;1.75;;
64885;SDS011;51514;52.206;5.114;2023-11-21T03:55:29;2.22;;;1.98;;
64885;SDS011;51514;52.206;5.114;2023-11-21T03:57:56;2.92;;;1.70;;
64885;SDS011;51514;52.206;5.114;2023-11-21T04:00:22;2.45;;;1.75;;
64885;SDS011;51514;52.206;5.114;2023-11-21T04:02:47;3.15;;;2.00;;
64885;SDS011;51514;52.206;5.114;2023-11-21T04:05:12;2.65;;;1.90;;
64885;SDS011;51514;52.206;5.114;2023-11-21T04:07:38;2.70;;;1.98;;
64885;SDS011;51514;52.206;5.114;2023-11-21T04:10:07;2.30;;;1.75;;
64885;SDS011;51514;52.206;5.114;2023-11-21T04:12:38;2.80;;;1.60;;
64885;SDS011;51514;52.206;5.114;2023-11-21T04:15:03;2.97;;;1.80;;
64885;SDS011;51514;52.206;5.114;2023-11-21T04:17:29;3.10;;;1.95;;
64885;SDS011;51514;52.206;5.114;2023-11-21T04:19:54;2.00;;;1.60;;
64885;SDS011;51514;52.206;5.114;2023-11-21T04:22:19;2.60;;;1.88;;
64885;SDS011;51514;52.206;5.114;2023-11-21T04:24:44;4.05;;;2.17;;
64885;SDS011;51514;52.206;5.114;2023-11-21T04:27:10;2.72;;;2.10;;
64885;SDS011;51514;52.206;5.114;2023-11-21T04:29:35;3.08;;;1.95;;
64885;SDS011;51514;52.206;5.114;2023-11-21T04:32:01;2.70;;;1.85;;
64885;SDS011;51514;52.206;5.114;2023-11-21T04:34:27;2.58;;;1.88;;
64885;SDS011;51514;52.206;5.114;2023-11-21T04:36:55;3.38;;;1.63;;
64885;SDS011;51514;52.206;5.114;2023-11-21T04:39:21;2.58;;;1.90;;
64885;SDS011;51514;52.206;5.114;2023-11-21T04:41:46;2.72;;;2.00;;
64885;SDS011;51514;52.206;5.114;2023-11-21T04:44:12;2.05;;;1.48;;
64885;SDS011;51514;52.206;5.114;2023-11-21T04:46:37;2.92;;;1.70;;
64885;SDS011;51514;52.206;5.114;2023-11-21T04:49:02;2.63;;;1.83;;
64885;SDS011;51514;52.206;5.114;2023-11-21T04:51:28;1.88;;;1.60;;
64885;SDS011;51514;52.206;5.114;2023-11-21T04:53:53;2.15;;;1.70;;
64885;SDS011;51514;52.206;5.114;2023-11-21T04:56:18;3.30;;;1.95;;
64885;SDS011;51514;52.206;5.114;2023-11-21T04:58:43;2.45;;;1.80;;
64885;SDS011;51514;52.206;5.114;2023-11-21T05:01:09;2.03;;;1.70;;
64885;SDS011;51514;52.206;5.114;2023-11-21T05:03:34;1.88;;;1.70;;
64885;SDS011;51514;52.206;5.114;2023-11-21T05:06:00;2.78;;;1.50;;
64885;SDS011;51514;52.206;5.114;2023-11-21T05:08:25;3.20;;;1.70;;
64885;SDS011;51514;52.206;5.114;2023-11-21T05:10:51;2.38;;;1.88;;
64885;SDS011;51514;52.206;5.114;2023-11-21T05:13:17;2.65;;;1.73;;
64885;SDS011;51514;52.206;5.114;2023-11-21T05:15:43;3.05;;;1.90;;
64885;SDS011;51514;52.206;5.114;2023-11-21T05:18:09;3.65;;;1.65;;
64885;SDS011;51514;52.206;5.114;2023-11-21T05:20:35;3.22;;;2.05;;
64885;SDS011;51514;52.206;5.114;2023-11-21T05:23:01;2.28;;;1.48;;
64885;SDS011;51514;52.206;5.114;2023-11-21T05:25:26;2.13;;;1.77;;
64885;SDS011;51514;52.206;5.114;2023-11-21T05:27:52;2.88;;;1.70;;
64885;SDS011;51514;52.206;5.114;2023-11-21T05:30:19;2.75;;;1.80;;
64885;SDS011;51514;52.206;5.114;2023-11-21T05:32:46;2.83;;;1.83;;
64885;SDS011;51514;52.206;5.114;2023-11-21T05:35:11;2.60;;;1.80;;
64885;SDS011;51514;52.206;5.114;2023-11-21T05:37:39;2.75;;;1.92;;
64885;SDS011;51514;52.206;5.114;2023-11-21T05:40:05;3.42;;;1.63;;
64885;SDS011;51514;52.206;5.114;2023-11-21T05:42:34;1.92;;;1.48;;
64885;SDS011;51514;52.206;5.114;2023-11-21T05:45:00;2.90;;;1.75;;
64885;SDS011;51514;52.206;5.114;2023-11-21T05:47:38;3.60;;;1.95;;
64885;SDS011;51514;52.206;5.114;2023-11-21T05:50:09;2.17;;;1.70;;
64885;SDS011;51514;52.206;5.114;2023-11-21T05:55:03;2.65;;;1.67;;
64885;SDS011;51514;52.206;5.114;2023-11-21T05:57:32;2.25;;;1.60;;
64885;SDS011;51514;52.206;5.114;2023-11-21T05:59:57;2.97;;;1.95;;
64885;SDS011;51514;52.206;5.114;2023-11-21T06:02:22;3.22;;;1.98;;
64885;SDS011;51514;52.206;5.114;2023-11-21T06:04:48;2.75;;;1.92;;
64885;SDS011;51514;52.206;5.114;2023-11-21T06:07:13;3.00;;;1.73;;
64885;SDS011;51514;52.206;5.114;2023-11-21T06:09:39;2.72;;;1.80;;
64885;SDS011;51514;52.206;5.114;2023-11-21T06:12:05;3.83;;;1.95;;
64885;SDS011;51514;52.206;5.114;2023-11-21T06:14:30;4.00;;;2.00;;
64885;SDS011;51514;52.206;5.114;2023-11-21T06:16:58;2.53;;;1.75;;
64885;SDS011;51514;52.206;5.114;2023-11-21T06:19:23;3.42;;;2.00;;
64885;SDS011;51514;52.206;5.114;2023-11-21T06:21:48;2.92;;;1.70;;
64885;SDS011;51514;52.206;5.114;2023-11-21T06:24:14;2.35;;;1.63;;
64885;SDS011;51514;52.206;5.114;2023-11-21T06:26:40;2.38;;;1.52;;
64885;SDS011;51514;52.206;5.114;2023-11-21T06:29:06;3.22;;;1.85;;
64885;SDS011;51514;52.206;5.114;2023-11-21T06:31:32;2.55;;;1.73;;
64885;SDS011;51514;52.206;5.114;2023-11-21T06:33:57;2.53;;;1.88;;
64885;SDS011;51514;52.206;5.114;2023-11-21T06:36:24;2.38;;;1.70;;
64885;SDS011;51514;52.206;5.114;2023-11-21T06:38:51;4.05;;;1.83;;
64885;SDS011;51514;52.206;5.114;2023-11-21T06:41:16;2.35;;;1.60;;
64885;SDS011;51514;52.206;5.114;2023-11-21T06:43:42;2.33;;;1.85;;
64885;SDS011;51514;52.206;5.114;2023-11-21T06:46:11;3.90;;;1.65;;
64885;SDS011;51514;52.206;5.114;2023-11-21T06:48:39;3.40;;;1.73;;
64885;SDS011;51514;52.206;5.114;2023-11-21T06:51:06;1.90;;;1.70;;
64885;SDS011;51514;52.206;5.114;2023-11-21T06:53:32;2.90;;;1.75;;
64885;SDS011;51514;52.206;5.114;2023-11-21T06:55:57;2.15;;;1.60;;
64885;SDS011;51514;52.206;5.114;2023-11-21T06:58:22;1.70;;;1.40;;
64885;SDS011;51514;52.206;5.114;2023-11-21T07:00:48;1.85;;;1.60;;
64885;SDS011;51514;52.206;5.114;2023-11-21T07:03:15;1.88;;;1.52;;
64885;SDS011;51514;52.206;5.114;2023-11-21T07:05:40;2.60;;;1.90;;
64885;SDS011;51514;52.206;5.114;2023-11-21T07:08:05;1.60;;;1.20;;
64885;SDS011;51514;52.206;5.114;2023-11-21T07:10:32;1.77;;;1.55;;
64885;SDS011;51514;52.206;5.114;2023-11-21T07:12:57;2.42;;;1.88;;
64885;SDS011;51514;52.206;5.114;2023-11-21T07:15:23;3.28;;;1.95;;
64885;SDS011;51514;52.206;5.114;2023-11-21T07:17:50;3.35;;;1.70;;
64885;SDS011;51514;52.206;5.114;2023-11-21T07:20:16;2.83;;;1.45;;
64885;SDS011;51514;52.206;5.114;2023-11-21T07:22:42;2.40;;;1.40;;
64885;SDS011;51514;52.206;5.114;2023-11-21T07:25:07;2.00;;;1.55;;
64885;SDS011;51514;52.206;5.114;2023-11-21T07:27:34;2.58;;;1.70;;
64885;SDS011;51514;52.206;5.114;2023-11-21T07:30:01;2.25;;;1.55;;
64885;SDS011;51514;52.206;5.114;2023-11-21T07:32:29;2.55;;;1.85;;
64885;SDS011;51514;52.206;5.114;2023-11-21T07:34:55;1.67;;;1.55;;
64885;SDS011;51514;52.206;5.114;2023-11-21T07:37:22;1.40;;;1.30;;
64885;SDS011;51514;52.206;5.114;2023-11-21T07:39:47;2.30;;;1.60;;
64885;SDS011;51514;52.206;5.114;2023-11-21T07:42:13;1.90;;;1.35;;
64885;SDS011;51514;52.206;5.114;2023-11-21T07:44:38;2.50;;;1.50;;
64885;SDS011;51514;52.206;5.114;2023-11-21T07:47:04;1.48;;;1.38;;
64885;SDS011;51514;52.206;5.114;2023-11-21T07:49:29;1.90;;;1.40;;
64885;SDS011;51514;52.206;5.114;2023-11-21T07:51:55;1.60;;;1.40;;
64885;SDS011;51514;52.206;5.114;2023-11-21T07:54:20;2.75;;;1.70;;
64885;SDS011;51514;52.206;5.114;2023-11-21T07:56:46;2.47;;;1.38;;
64885;SDS011;51514;52.206;5.114;2023-11-21T07:59:11;3.15;;;1.63;;
64885;SDS011;51514;52.206;5.114;2023-11-21T08:01:37;1.58;;;1.38;;
64885;SDS011;51514;52.206;5.114;2023-11-21T08:04:02;2.38;;;1.30;;
64885;SDS011;51514;52.206;5.114;2023-11-21T08:06:29;2.03;;;1.48;;
64885;SDS011;51514;52.206;5.114;2023-11-21T08:08:55;2.92;;;1.60;;
64885;SDS011;51514;52.206;5.114;2023-11-21T08:11:21;1.58;;;1.35;;
64885;SDS011;51514;52.206;5.114;2023-11-21T08:13:47;2.33;;;1.23;;
64885;SDS011;51514;52.206;5.114;2023-11-21T08:16:12;2.55;;;1.75;;
64885;SDS011;51514;52.206;5.114;2023-11-21T08:18:37;1.83;;;1.48;;
64885;SDS011;51514;52.206;5.114;2023-11-21T08:21:03;2.05;;;1.42;;
64885;SDS011;51514;52.206;5.114;2023-11-21T08:23:29;2.40;;;1.30;;
64885;SDS011;51514;52.206;5.114;2023-11-21T08:25:55;2.75;;;1.70;;
64885;SDS011;51514;52.206;5.114;2023-11-21T08:28:20;1.92;;;1.48;;
64885;SDS011;51514;52.206;5.114;2023-11-21T08:30:51;1.30;;;1.20;;
64885;SDS011;51514;52.206;5.114;2023-11-21T08:33:16;2.25;;;1.55;;
64885;SDS011;51514;52.206;5.114;2023-11-21T08:35:42;3.08;;;1.80;;
64885;SDS011;51514;52.206;5.114;2023-11-21T08:38:07;4.50;;;1.58;;
64885;SDS011;51514;52.206;5.114;2023-11-21T08:40:34;2.40;;;1.65;;
64885;SDS011;51514;52.206;5.114;2023-11-21T08:43:00;2.05;;;1.58;;
64885;SDS011;51514;52.206;5.114;2023-11-21T08:45:25;2.75;;;1.58;;
64885;SDS011;51514;52.206;5.114;2023-11-21T08:47:51;3.00;;;1.20;;
64885;SDS011;51514;52.206;5.114;2023-11-21T08:50:16;3.03;;;1.58;;
64885;SDS011;51514;52.206;5.114;2023-11-21T08:52:42;2.72;;;1.58;;
64885;SDS011;51514;52.206;5.114;2023-11-21T08:55:08;3.72;;;1.75;;
64885;SDS011;51514;52.206;5.114;2023-11-21T08:57:34;4.50;;;2.03;;
64885;SDS011;51514;52.206;5.114;2023-11-21T09:00:00;3.70;;;1.42;;
64885;SDS011;51514;52.206;5.114;2023-11-21T09:02:26;3.90;;;1.40;;
64885;SDS011;51514;52.206;5.114;2023-11-21T09:04:52;1.65;;;1.40;;
64885;SDS011;51514;52.206;5.114;2023-11-21T09:07:18;3.08;;;1.60;;
64885;SDS011;51514;52.206;5.114;2023-11-21T09:09:47;5.28;;;1.48;;
64885;SDS011;51514;52.206;5.114;2023-11-21T09:12:13;2.00;;;1.35;;
64885;SDS011;51514;52.206;5.114;2023-11-21T09:14:38;2.80;;;1.63;;
64885;SDS011;51514;52.206;5.114;2023-11-21T09:17:04;2.72;;;1.83;;
64885;SDS011;51514;52.206;5.114;2023-11-21T09:19:35;4.32;;;1.70;;
64885;SDS011;51514;52.206;5.114;2023-11-21T09:22:03;2.60;;;1.50;;
64885;SDS011;51514;52.206;5.114;2023-11-21T09:24:30;2.85;;;1.17;;
64885;SDS011;51514;52.206;5.114;2023-11-21T09:26:59;1.25;;;1.10;;
64885;SDS011;51514;52.206;5.114;2023-11-21T09:29:25;1.48;;;1.33;;
64885;SDS011;51514;52.206;5.114;2023-11-21T09:31:54;0.90;;;0.90;;
64885;SDS011;51514;52.206;5.114;2023-11-21T09:34:24;2.20;;;1.25;;
64885;SDS011;51514;52.206;5.114;2023-11-21T09:36:50;1.80;;;1.38;;
64885;SDS011;51514;52.206;5.114;2023-11-21T09:39:16;2.13;;;1.17;;
64885;SDS011;51514;52.206;5.114;2023-11-21T09:41:43;2.10;;;1.08;;
64885;SDS011;51514;52.206;5.114;2023-11-21T09:44:14;2.03;;;1.30;;
64885;SDS011;51514;52.206;5.114;2023-11-21T09:46:43;1.17;;;1.00;;
64885;SDS011;51514;52.206;5.114;2023-11-21T09:49:13;2.30;;;1.00;;
64885;SDS011;51514;52.206;5.114;2023-11-21T09:51:41;2.72;;;1.25;;
64885;SDS011;51514;52.206;5.114;2023-11-21T09:54:08;3.22;;;1.00;;
64885;SDS011;51514;52.206;5.114;2023-11-21T09:56:37;3.53;;;1.45;;
64885;SDS011;51514;52.206;5.114;2023-11-21T09:59:03;1.38;;;1.15;;
64885;SDS011;51514;52.206;5.114;2023-11-21T10:01:33;1.83;;;1.20;;
64885;SDS011;51514;52.206;5.114;2023-11-21T10:04:01;1.38;;;1.00;;
64885;SDS011;51514;52.206;5.114;2023-11-21T10:06:26;3.28;;;1.38;;
64885;SDS011;51514;52.206;5.114;2023-11-21T10:08:53;1.38;;;1.00;;
64885;SDS011;51514;52.206;5.114;2023-11-21T10:11:22;3.15;;;1.10;;
64885;SDS011;51514;52.206;5.114;2023-11-21T10:13:49;1.42;;;0.95;;
64885;SDS011;51514;52.206;5.114;2023-11-21T10:16:19;4.82;;;1.42;;
64885;SDS011;51514;52.206;5.114;2023-11-21T10:18:48;1.33;;;1.00;;
64885;SDS011;51514;52.206;5.114;2023-11-21T10:21:17;1.10;;;0.98;;
64885;SDS011;51514;52.206;5.114;2023-11-21T10:23:43;1.75;;;1.20;;
64885;SDS011;51514;52.206;5.114;2023-11-21T10:26:09;1.50;;;1.00;;
64885;SDS011;51514;52.206;5.114;2023-11-21T10:28:41;1.95;;;1.23;;
64885;SDS011;51514;52.206;5.114;2023-11-21T10:31:07;2.13;;;1.17;;
64885;SDS011;51514;52.206;5.114;2023-11-21T10:33:32;1.73;;;1.10;;
64885;SDS011;51514;52.206;5.114;2023-11-21T10:35:58;5.25;;;1.33;;
64885;SDS011;51514;52.206;5.114;2023-11-21T10:38:24;1.67;;;1.10;;
64885;SDS011;51514;52.206;5.114;2023-11-21T10:40:52;2.83;;;1.50;;
64885;SDS011;51514;52.206;5.114;2023-11-21T10:43:17;3.03;;;1.42;;
64885;SDS011;51514;52.206;5.114;2023-11-21T10:45:43;1.10;;;1.00;;
64885;SDS011;51514;52.206;5.114;2023-11-21T10:48:09;1.95;;;1.58;;
64885;SDS011;51514;52.206;5.114;2023-11-21T10:50:37;1.98;;;1.15;;
64885;SDS011;51514;52.206;5.114;2023-11-21T10:53:03;2.15;;;1.38;;
64885;SDS011;51514;52.206;5.114;2023-11-21T10:55:29;2.20;;;1.10;;
64885;SDS011;51514;52.206;5.114;2023-11-21T10:57:57;1.67;;;1.23;;
64885;SDS011;51514;52.206;5.114;2023-11-21T11:00:24;1.92;;;1.17;;
64885;SDS011;51514;52.206;5.114;2023-11-21T11:02:52;1.30;;;1.05;;
64885;SDS011;51514;52.206;5.114;2023-11-21T11:05:21;1.75;;;1.48;;
64885;SDS011;51514;52.206;5.114;2023-11-21T11:07:51;2.25;;;1.48;;
64885;SDS011;51514;52.206;5.114;2023-11-21T11:10:27;2.15;;;1.40;;
64885;SDS011;51514;52.206;5.114;2023-11-21T11:12:54;1.77;;;1.50;;
64885;SDS011;51514;52.206;5.114;2023-11-21T11:15:20;3.17;;;1.70;;
64885;SDS011;51514;52.206;5.114;2023-11-21T11:17:46;1.58;;;1.38;;
64885;SDS011;51514;52.206;5.114;2023-11-21T11:20:13;2.10;;;1.48;;
64885;SDS011;51514;52.206;5.114;2023-11-21T11:22:50;4.13;;;1.80;;
64885;SDS011;51514;52.206;5.114;2023-11-21T11:25:51;2.75;;;1.38;;
64885;SDS011;51514;52.206;5.114;2023-11-21T11:28:44;2.60;;;1.67;;
64885;SDS011;51514;52.206;5.114;2023-11-21T11:34:29;2.72;;;1.60;;
64885;SDS011;51514;52.206;5.114;2023-11-21T11:37:07;1.90;;;1.37;;
64885;SDS011;51514;52.206;5.114;2023-11-21T11:42:03;1.40;;;1.30;;
64885;SDS011;51514;52.206;5.114;2023-11-21T11:47:31;2.53;;;1.50;;
64885;SDS011;51514;52.206;5.114;2023-11-21T11:55:07;3.95;;;1.30;;
64885;SDS011;51514;52.206;5.114;2023-11-21T11:57:37;2.38;;;1.10;;
64885;SDS011;51514;52.206;5.114;2023-11-21T12:00:07;1.63;;;1.20;;
64885;SDS011;51514;52.206;5.114;2023-11-21T12:02:35;2.75;;;1.33;;
64885;SDS011;51514;52.206;5.114;2023-11-21T12:05:06;1.63;;;1.40;;
64885;SDS011;51514;52.206;5.114;2023-11-21T12:07:52;2.13;;;1.27;;
64885;SDS011;51514;52.206;5.114;2023-11-21T12:10:19;1.58;;;1.10;;
64885;SDS011;51514;52.206;5.114;2023-11-21T12:12:50;3.42;;;1.45;;
64885;SDS011;51514;52.206;5.114;2023-11-21T12:15:26;1.88;;;1.13;;
64885;SDS011;51514;52.206;5.114;2023-11-21T12:17:55;1.88;;;1.27;;
64885;SDS011;51514;52.206;5.114;2023-11-21T12:20:23;2.42;;;1.42;;
64885;SDS011;51514;52.206;5.114;2023-11-21T12:22:50;2.72;;;1.30;;
64885;SDS011;51514;52.206;5.114;2023-11-21T12:25:21;1.55;;;1.13;;
64885;SDS011;51514;52.206;5.114;2023-11-21T12:27:49;3.10;;;1.27;;
64885;SDS011;51514;52.206;5.114;2023-11-21T12:30:16;2.92;;;1.40;;
64885;SDS011;51514;52.206;5.114;2023-11-21T12:32:43;2.05;;;1.05;;
64885;SDS011;51514;52.206;5.114;2023-11-21T12:35:11;1.85;;;1.30;;
64885;SDS011;51514;52.206;5.114;2023-11-21T12:37:40;2.63;;;1.50;;
64885;SDS011;51514;52.206;5.114;2023-11-21T12:40:09;2.72;;;1.48;;
64885;SDS011;51514;52.206;5.114;2023-11-21T12:42:44;1.95;;;1.30;;
64885;SDS011;51514;52.206;5.114;2023-11-21T12:47:52;1.95;;;1.48;;
64885;SDS011;51514;52.206;5.114;2023-11-21T12:50:32;2.50;;;1.42;;
64885;SDS011;51514;52.206;5.114;2023-11-21T12:52:59;2.40;;;1.85;;
64885;SDS011;51514;52.206;5.114;2023-11-21T12:55:33;1.75;;;1.48;;
64885;SDS011;51514;52.206;5.114;2023-11-21T12:58:03;2.92;;;1.45;;
64885;SDS011;51514;52.206;5.114;2023-11-21T13:03:04;2.22;;;1.52;;
64885;SDS011;51514;52.206;5.114;2023-11-21T13:05:32;3.15;;;1.67;;
64885;SDS011;51514;52.206;5.114;2023-11-21T13:08:00;2.80;;;1.60;;
64885;SDS011;51514;52.206;5.114;2023-11-21T13:10:29;1.90;;;1.10;;
64885;SDS011;51514;52.206;5.114;2023-11-21T13:12:57;2.08;;;1.50;;
64885;SDS011;51514;52.206;5.114;2023-11-21T13:15:24;2.72;;;1.67;;
64885;SDS011;51514;52.206;5.114;2023-11-21T13:17:50;3.58;;;1.73;;
64885;SDS011;51514;52.206;5.114;2023-11-21T13:20:16;4.20;;;2.08;;
64885;SDS011;51514;52.206;5.114;2023-11-21T13:22:49;2.40;;;1.65;;
64885;SDS011;51514;52.206;5.114;2023-11-21T13:25:25;3.97;;;2.10;;
64885;SDS011;51514;52.206;5.114;2023-11-21T13:27:54;3.38;;;1.90;;
64885;SDS011;51514;52.206;5.114;2023-11-21T13:30:20;2.72;;;1.73;;
64885;SDS011;51514;52.206;5.114;2023-11-21T13:32:51;2.42;;;1.70;;
64885;SDS011;51514;52.206;5.114;2023-11-21T13:35:20;2.15;;;1.70;;
64885;SDS011;51514;52.206;5.114;2023-11-21T13:37:55;3.17;;;1.70;;
64885;SDS011;51514;52.206;5.114;2023-11-21T13:40:22;3.38;;;1.70;;
64885;SDS011;51514;52.206;5.114;2023-11-21T13:42:54;2.92;;;1.67;;
64885;SDS011;51514;52.206;5.114;2023-11-21T13:45:23;1.70;;;1.38;;
64885;SDS011;51514;52.206;5.114;2023-11-21T13:47:50;2.47;;;1.75;;
64885;SDS011;51514;52.206;5.114;2023-11-21T13:50:17;3.13;;;1.50;;
64885;SDS011;51514;52.206;5.114;2023-11-21T13:52:47;2.72;;;1.90;;
64885;SDS011;51514;52.206;5.114;2023-11-21T13:55:13;1.95;;;1.40;;
64885;SDS011;51514;52.206;5.114;2023-11-21T13:57:44;2.78;;;1.67;;
64885;SDS011;51514;52.206;5.114;2023-11-21T14:00:12;3.22;;;1.88;;
64885;SDS011;51514;52.206;5.114;2023-11-21T14:02:57;2.78;;;1.70;;
64885;SDS011;51514;52.206;5.114;2023-11-21T14:05:28;2.70;;;1.67;;
64885;SDS011;51514;52.206;5.114;2023-11-21T14:07:57;2.28;;;1.52;;
64885;SDS011;51514;52.206;5.114;2023-11-21T14:10:31;2.15;;;1.70;;
64885;SDS011;51514;52.206;5.114;2023-11-21T14:13:08;2.55;;;1.85;;
64885;SDS011;51514;52.206;5.114;2023-11-21T14:15:35;1.77;;;1.33;;
64885;SDS011;51514;52.206;5.114;2023-11-21T14:18:07;2.97;;;1.70;;
64885;SDS011;51514;52.206;5.114;2023-11-21T14:20:35;2.40;;;1.60;;
64885;SDS011;51514;52.206;5.114;2023-11-21T14:25:31;3.95;;;1.85;;
64885;SDS011;51514;52.206;5.114;2023-11-21T14:28:02;2.92;;;1.98;;
64885;SDS011;51514;52.206;5.114;2023-11-21T14:30:36;3.08;;;2.15;;
64885;SDS011;51514;52.206;5.114;2023-11-21T14:33:02;3.40;;;2.20;;
64885;SDS011;51514;52.206;5.114;2023-11-21T14:35:28;2.75;;;2.08;;
64885;SDS011;51514;52.206;5.114;2023-11-21T14:37:57;3.13;;;2.08;;
64885;SDS011;51514;52.206;5.114;2023-11-21T14:40:25;3.75;;;1.88;;
64885;SDS011;51514;52.206;5.114;2023-11-21T14:42:52;2.67;;;1.75;;
64885;SDS011;51514;52.206;5.114;2023-11-21T14:45:19;2.88;;;1.90;;
64885;SDS011;51514;52.206;5.114;2023-11-21T14:47:48;2.40;;;1.70;;
64885;SDS011;51514;52.206;5.114;2023-11-21T14:50:34;2.58;;;1.75;;
64885;SDS011;51514;52.206;5.114;2023-11-21T14:53:03;1.85;;;1.30;;
64885;SDS011;51514;52.206;5.114;2023-11-21T14:55:31;2.13;;;1.40;;
64885;SDS011;51514;52.206;5.114;2023-11-21T14:58:14;2.53;;;1.38;;
64885;SDS011;51514;52.206;5.114;2023-11-21T15:00:46;1.20;;;1.10;;
64885;SDS011;51514;52.206;5.114;2023-11-21T15:03:12;2.80;;;1.27;;
64885;SDS011;51514;52.206;5.114;2023-11-21T15:06:10;2.15;;;1.60;;
64885;SDS011;51514;52.206;5.114;2023-11-21T15:08:50;5.57;;;1.92;;
64885;SDS011;51514;52.206;5.114;2023-11-21T15:11:45;8.63;;;1.95;;
64885;SDS011;51514;52.206;5.114;2023-11-21T15:14:12;3.80;;;2.00;;